Decoded Metar for KGLD (GOODLAND in KS, USA) (IATA:GLD) | Meteo·Mobile Aviation Weather
aviador You're here:

KGLD Decoded Metar

GOODLAND in KS, USA
Report Time2018-09-24 07:53:00
UTC Time2018-09-24 08:02:52
Flight Rules vfr VFR
Wind170° at 14 kt
W.Decomp.*RWY 17: 13.8 kt HW 2.2 kt LCW
RWY 12: 10.6 kt HW 9.2 kt RCW
RWY 23: 5.0 kt HW 13.1 kt LCW
W.Rank170° ranks 2
Current wind is above 170° avg. (12.1)
Visibility9999 m
Phenomena:N/A
Clouds:N/A
Expected CloudBase > 3,200 ft AGL from Temp-Dew spread
CeilingNone
Temp16°C (ISA +8)
Dew Point08°C (59% RH)
AAT10.5°C
QNH1010 hPa
Density Alt4,872 ft
Elevation3,652 ft
Report Wrong Elevation
Raw Report
KGLD 240753Z AUTO 17014KT 10SM CLR 16/08 A2984 RMK AO2 SLP057
T01560083=

Extra information for KGLD:More info

Metar Taf Metar & Taf Last 4 Metars F.Rules Stats Wind Profile Meteogram Temp Stats Airport Information Weather charts Add Link Nearby VenuesMetar ALERT Operation Metar Decoded Social comments

AIRNAV info for KGLD